Weather at Adak Airport

Public forecast

Using degrees Fahrenheit for public forecast. Weather courtesy of forecast.io.

Current aviation weather report (METAR) for Adak Airport

Report is more than 6 hours old.

2022/11/14 14:56 (retrieved 2 years ago)

PADK 141456Z AUTO 22003KT OVC050 03/M02 A3022

Closest aviation forecast (TAF) to Adak Airport

Forecast is more than 12 hours old.

Closest forecast is Eareckson Air Station, 342.8 nm (634.8 km) WNW.

2023/02/22 19:56 Ammendment (retrieved 1 year ago)

TAF AMD PASY 221940Z 2219/2320 35030KT 8000 -SN OVC014 620149 530003 QNH2880INS TEMPO 2219/2303 OVC025 620259 BECMG 2302/2303 29020KT 9999 NSW SCT021 OVC029 510002 QNH2951INS BECMG 2308/2309 20012KT 9999 FEW023 SCT035 BKN050 510003 QNH2971INS BECMG 2311/2312 20020KT 9999 BKN016 OVC024 520003 QNH2974INS BECMG 2314/2315 23020G30KT 9000 -SN SCT024 OVC035 620359 530003 QNH2975INS TX03/2220Z TNM02/2305Z